createdAt,value
2023-01-21T00:00:29.588Z,988.49
2023-01-21T00:01:29.514Z,988.53
2023-01-21T00:02:29.539Z,988.55
2023-01-21T00:03:29.505Z,988.57
2023-01-21T00:04:30.407Z,988.64
2023-01-21T00:05:29.533Z,988.62
2023-01-21T00:06:29.548Z,988.61
2023-01-21T00:07:29.632Z,988.61
2023-01-21T00:08:29.481Z,988.65
2023-01-21T00:09:29.461Z,988.63
2023-01-21T00:10:29.472Z,988.64
2023-01-21T00:11:29.423Z,988.63
2023-01-21T00:12:29.456Z,988.65
2023-01-21T00:13:29.458Z,988.70
2023-01-21T00:14:29.651Z,988.69
2023-01-21T00:15:29.424Z,988.68
2023-01-21T00:16:29.375Z,988.71
2023-01-21T00:17:29.412Z,988.68
2023-01-21T00:18:30.171Z,988.81
2023-01-21T00:19:29.351Z,988.76
2023-01-21T00:20:29.320Z,988.79
2023-01-21T00:21:30.306Z,988.83
2023-01-21T00:22:29.307Z,988.83
2023-01-21T00:23:30.111Z,988.83
2023-01-21T00:24:29.301Z,988.82
2023-01-21T00:25:29.336Z,988.83
2023-01-21T00:26:29.248Z,988.82
2023-01-21T00:27:29.261Z,988.86
2023-01-21T00:28:29.225Z,988.89
2023-01-21T00:29:29.251Z,988.92
2023-01-21T00:30:29.235Z,988.91
2023-01-21T00:31:29.283Z,988.99
2023-01-21T00:32:29.196Z,988.96
2023-01-21T00:33:29.225Z,988.96
2023-01-21T00:34:29.167Z,988.98
2023-01-21T00:35:29.221Z,989.00
2023-01-21T00:36:29.140Z,989.07
2023-01-21T00:37:29.186Z,989.07
2023-01-21T00:38:29.122Z,989.04
2023-01-21T00:39:29.139Z,989.01
2023-01-21T00:40:29.096Z,989.10
2023-01-21T00:41:29.140Z,989.11
2023-01-21T00:42:29.070Z,989.13
2023-01-21T00:43:29.091Z,989.12
2023-01-21T00:44:29.067Z,989.12
2023-01-21T00:45:29.086Z,989.16
2023-01-21T00:46:29.089Z,989.15
2023-01-21T00:47:29.044Z,989.22
2023-01-21T00:48:29.038Z,989.17
2023-01-21T00:49:29.028Z,989.21
2023-01-21T00:50:28.992Z,989.21
2023-01-21T00:51:29.010Z,989.26
2023-01-21T00:52:28.993Z,989.22
2023-01-21T00:53:28.984Z,989.28
2023-01-21T00:54:28.952Z,989.26
2023-01-21T00:55:28.959Z,989.25
2023-01-21T00:56:28.931Z,989.28
2023-01-21T00:57:28.944Z,989.28
2023-01-21T00:58:28.909Z,989.30
2023-01-21T00:59:28.913Z,989.31
2023-01-21T01:00:28.884Z,989.38
2023-01-21T01:01:28.897Z,989.34
2023-01-21T01:02:28.989Z,989.41
2023-01-21T01:03:28.864Z,989.39
2023-01-21T01:04:28.855Z,989.42
2023-01-21T01:05:29.305Z,989.42
2023-01-21T01:06:28.825Z,989.48
2023-01-21T01:07:28.838Z,989.42
2023-01-21T01:08:28.794Z,989.45
2023-01-21T01:09:28.811Z,989.47
2023-01-21T01:10:28.839Z,989.53
2023-01-21T01:11:28.805Z,989.55
2023-01-21T01:12:28.753Z,989.55
2023-01-21T01:13:28.765Z,989.59
2023-01-21T01:14:28.735Z,989.60
2023-01-21T01:15:28.747Z,989.64
2023-01-21T01:16:28.732Z,989.65
2023-01-21T01:17:28.723Z,989.68
2023-01-21T01:18:28.680Z,989.72
2023-01-21T01:19:28.734Z,989.67
2023-01-21T01:20:28.659Z,989.71
2023-01-21T01:21:28.676Z,989.72
2023-01-21T01:22:28.653Z,989.73
2023-01-21T01:23:28.660Z,989.74
2023-01-21T01:24:28.625Z,989.74
2023-01-21T01:25:28.632Z,989.76
2023-01-21T01:26:28.606Z,989.81
2023-01-21T01:27:28.654Z,989.78
2023-01-21T01:28:28.595Z,989.80
2023-01-21T01:29:28.641Z,989.85
2023-01-21T01:30:28.585Z,989.80
2023-01-21T01:31:28.590Z,989.87
2023-01-21T01:32:28.532Z,989.83
2023-01-21T01:33:28.576Z,989.87
2023-01-21T01:34:28.529Z,989.87
2023-01-21T01:35:28.582Z,989.90
2023-01-21T01:36:28.480Z,989.93
2023-01-21T01:37:28.497Z,989.90
2023-01-21T01:38:28.476Z,989.94
2023-01-21T01:39:28.560Z,989.97
2023-01-21T01:40:28.439Z,989.99
2023-01-21T01:41:28.495Z,989.97
2023-01-21T01:42:28.456Z,989.98
2023-01-21T01:43:28.471Z,990.02
2023-01-21T01:44:28.396Z,990.07
2023-01-21T01:45:28.866Z,990.08
2023-01-21T01:46:29.220Z,990.10
2023-01-21T01:47:28.424Z,990.12
2023-01-21T01:48:28.363Z,990.10
2023-01-21T01:49:28.382Z,990.11
2023-01-21T01:50:28.336Z,990.11
2023-01-21T01:51:28.375Z,990.18
2023-01-21T01:52:28.368Z,990.16
2023-01-21T01:53:28.366Z,990.18
2023-01-21T01:54:28.289Z,990.19
2023-01-21T01:55:28.306Z,990.21
2023-01-21T01:56:28.286Z,990.22
2023-01-21T01:57:28.276Z,990.23
2023-01-21T01:58:28.244Z,990.24
2023-01-21T01:59:28.259Z,990.26
2023-01-21T02:00:28.263Z,990.30
2023-01-21T02:01:28.256Z,990.27
2023-01-21T02:02:28.206Z,990.27
2023-01-21T02:03:28.213Z,990.32
2023-01-21T02:04:28.195Z,990.31
2023-01-21T02:05:28.193Z,990.35
2023-01-21T02:06:28.953Z,990.36
2023-01-21T02:07:28.175Z,990.37
2023-01-21T02:08:28.247Z,990.43
2023-01-21T02:09:28.155Z,990.45
2023-01-21T02:10:28.123Z,990.46
2023-01-21T02:11:28.134Z,990.51
2023-01-21T02:12:28.153Z,990.52
2023-01-21T02:13:28.113Z,990.53
2023-01-21T02:14:28.071Z,990.50
2023-01-21T02:15:28.090Z,990.54
2023-01-21T02:16:28.123Z,990.57
2023-01-21T02:17:28.073Z,990.52
2023-01-21T02:18:28.040Z,990.52
2023-01-21T02:19:28.035Z,990.57
2023-01-21T02:20:27.993Z,990.56
2023-01-21T02:21:28.010Z,990.57
2023-01-21T02:22:28.024Z,990.55
2023-01-21T02:23:28.028Z,990.56
2023-01-21T02:24:27.965Z,990.61
2023-01-21T02:25:27.980Z,990.59
2023-01-21T02:26:27.956Z,990.58
2023-01-21T02:27:31.043Z,990.63
2023-01-21T02:28:27.932Z,990.64
2023-01-21T02:29:27.963Z,990.63
2023-01-21T02:30:27.899Z,990.65
2023-01-21T02:31:27.948Z,990.66
2023-01-21T02:32:27.868Z,990.69
2023-01-21T02:33:27.897Z,990.72
2023-01-21T02:34:27.857Z,990.70
2023-01-21T02:35:27.881Z,990.68
2023-01-21T02:36:27.848Z,990.72
2023-01-21T02:37:27.838Z,990.69
2023-01-21T02:38:27.803Z,990.68
2023-01-21T02:39:27.824Z,990.70
2023-01-21T02:40:27.786Z,990.72
2023-01-21T02:41:27.839Z,990.70
2023-01-21T02:42:27.766Z,990.77
2023-01-21T02:43:27.769Z,990.81
2023-01-21T02:44:27.738Z,990.79
2023-01-21T02:45:27.745Z,990.82
2023-01-21T02:46:28.532Z,990.84
2023-01-21T02:47:27.758Z,990.85
2023-01-21T02:48:27.685Z,990.82
2023-01-21T02:49:27.725Z,990.83
2023-01-21T02:50:27.703Z,990.84
2023-01-21T02:51:27.685Z,990.88
2023-01-21T02:52:27.681Z,990.88
2023-01-21T02:53:27.703Z,990.87
2023-01-21T02:54:27.626Z,990.85
2023-01-21T02:55:27.673Z,990.88
2023-01-21T02:56:27.699Z,990.91
2023-01-21T02:57:27.622Z,990.93
2023-01-21T02:58:27.595Z,990.95
2023-01-21T02:59:27.604Z,990.96
2023-01-21T03:00:27.601Z,990.95
2023-01-21T03:01:27.614Z,990.90
2023-01-21T03:02:27.546Z,990.90
2023-01-21T03:03:27.553Z,990.92
2023-01-21T03:04:27.610Z,990.96
2023-01-21T03:05:27.543Z,990.97
2023-01-21T03:06:27.500Z,990.95
2023-01-21T03:07:27.530Z,990.98
2023-01-21T03:08:28.358Z,991.01
2023-01-21T03:09:27.523Z,990.99
2023-01-21T03:10:27.513Z,991.00
2023-01-21T03:11:27.476Z,991.08
2023-01-21T03:12:27.431Z,990.99
2023-01-21T03:13:27.461Z,991.03
2023-01-21T03:14:27.414Z,991.01
2023-01-21T03:15:27.419Z,991.00
2023-01-21T03:16:27.562Z,991.01
2023-01-21T03:17:27.577Z,991.04
2023-01-21T03:18:27.386Z,991.05
2023-01-21T03:19:27.381Z,991.05
2023-01-21T03:20:27.392Z,991.08
2023-01-21T03:21:27.364Z,991.11
2023-01-21T03:22:27.327Z,991.09
2023-01-21T03:23:27.344Z,991.11
2023-01-21T03:24:27.312Z,991.07
2023-01-21T03:25:27.356Z,991.08
2023-01-21T03:26:27.289Z,991.05
2023-01-21T03:27:27.307Z,991.08
2023-01-21T03:28:27.303Z,991.09
2023-01-21T03:29:27.278Z,991.09
2023-01-21T03:30:27.239Z,991.09
2023-01-21T03:31:27.292Z,991.08
2023-01-21T03:32:27.242Z,991.08
2023-01-21T03:33:27.231Z,991.09
2023-01-21T03:34:27.192Z,991.07
2023-01-21T03:35:27.287Z,991.14
2023-01-21T03:36:27.204Z,991.09
2023-01-21T03:37:27.216Z,991.11
2023-01-21T03:38:27.155Z,991.16
2023-01-21T03:39:27.162Z,991.13
2023-01-21T03:40:27.133Z,991.12
2023-01-21T03:41:27.163Z,991.16
2023-01-21T03:42:27.115Z,991.21
2023-01-21T03:43:27.112Z,991.20
2023-01-21T03:44:27.099Z,991.20
2023-01-21T03:45:27.124Z,991.22
2023-01-21T03:46:28.038Z,991.26
2023-01-21T03:47:27.095Z,991.25
2023-01-21T03:48:27.056Z,991.31
2023-01-21T03:49:27.054Z,991.33
2023-01-21T03:50:27.100Z,991.33
2023-01-21T03:51:27.031Z,991.30
2023-01-21T03:52:26.996Z,991.31
2023-01-21T03:53:27.002Z,991.39
2023-01-21T03:54:26.980Z,991.33
2023-01-21T03:55:27.034Z,991.37
2023-01-21T03:56:26.960Z,991.32
2023-01-21T03:57:26.954Z,991.38
2023-01-21T03:58:26.949Z,991.38
2023-01-21T03:59:26.933Z,991.39
2023-01-21T04:00:26.905Z,991.41
2023-01-21T04:01:26.936Z,991.41
2023-01-21T04:02:26.953Z,991.39
2023-01-21T04:03:26.893Z,991.40
2023-01-21T04:04:26.867Z,991.41
2023-01-21T04:05:26.872Z,991.40
2023-01-21T04:06:26.852Z,991.38
2023-01-21T04:07:26.868Z,991.37
2023-01-21T04:08:26.866Z,991.39
2023-01-21T04:09:26.841Z,991.39
2023-01-21T04:10:26.818Z,991.38
2023-01-21T04:11:26.808Z,991.34
2023-01-21T04:12:26.804Z,991.37
2023-01-21T04:13:26.809Z,991.37
2023-01-21T04:14:26.760Z,991.39
2023-01-21T04:15:26.786Z,991.38
2023-01-21T04:16:26.775Z,991.40
2023-01-21T04:17:26.748Z,991.39
2023-01-21T04:18:26.755Z,991.39
2023-01-21T04:19:26.752Z,991.45
2023-01-21T04:20:26.681Z,991.45
2023-01-21T04:21:26.727Z,991.43
2023-01-21T04:22:26.660Z,991.46
2023-01-21T04:23:26.674Z,991.47
2023-01-21T04:24:26.679Z,991.52
2023-01-21T04:25:26.679Z,991.59
2023-01-21T04:26:26.629Z,991.64
2023-01-21T04:27:26.631Z,991.59
2023-01-21T04:28:26.628Z,991.57
2023-01-21T04:29:26.646Z,991.58
2023-01-21T04:30:27.288Z,991.58
2023-01-21T04:31:26.666Z,991.59
2023-01-21T04:32:26.583Z,991.62
2023-01-21T04:33:26.540Z,991.59
2023-01-21T04:34:26.573Z,991.59
2023-01-21T04:35:26.525Z,991.60
2023-01-21T04:36:26.539Z,991.62
2023-01-21T04:37:26.518Z,991.66
2023-01-21T04:38:26.515Z,991.61
2023-01-21T04:39:26.504Z,991.66
2023-01-21T04:40:26.524Z,991.67
2023-01-21T04:41:26.452Z,991.69
2023-01-21T04:42:26.506Z,991.66
2023-01-21T04:43:26.428Z,991.74
2023-01-21T04:44:26.467Z,991.69
2023-01-21T04:45:26.418Z,991.70
2023-01-21T04:46:27.233Z,991.68
2023-01-21T04:47:26.476Z,991.75
2023-01-21T04:48:26.395Z,991.75
2023-01-21T04:49:26.414Z,991.72
2023-01-21T04:50:26.502Z,991.71
2023-01-21T04:51:26.367Z,991.70
2023-01-21T04:52:26.371Z,991.73
2023-01-21T04:53:26.327Z,991.69
2023-01-21T04:54:26.346Z,991.75
2023-01-21T04:55:26.550Z,991.70
2023-01-21T04:56:26.317Z,991.75
2023-01-21T04:57:26.291Z,991.75
2023-01-21T04:58:26.308Z,991.79
2023-01-21T04:59:26.276Z,991.76
2023-01-21T05:00:26.274Z,991.80
2023-01-21T05:01:26.351Z,991.83
2023-01-21T05:02:26.328Z,991.83
2023-01-21T05:03:26.233Z,991.84
2023-01-21T05:04:26.235Z,991.86
2023-01-21T05:05:26.230Z,991.82
2023-01-21T05:06:26.221Z,991.87
2023-01-21T05:07:26.186Z,991.90
2023-01-21T05:08:26.199Z,991.89
2023-01-21T05:09:26.295Z,991.90
2023-01-21T05:10:26.180Z,991.92
2023-01-21T05:11:26.198Z,991.92
2023-01-21T05:12:26.145Z,991.97
2023-01-21T05:13:26.110Z,991.95
2023-01-21T05:14:26.135Z,991.92
2023-01-21T05:15:26.127Z,991.91
2023-01-21T05:16:26.114Z,991.91
2023-01-21T05:17:26.087Z,991.93
2023-01-21T05:18:26.090Z,991.91
2023-01-21T05:19:26.064Z,991.94
2023-01-21T05:20:26.089Z,991.93
2023-01-21T05:21:26.011Z,991.95
2023-01-21T05:22:26.036Z,991.92
2023-01-21T05:23:26.029Z,991.93
2023-01-21T05:24:26.009Z,991.90
2023-01-21T05:25:25.984Z,991.91
2023-01-21T05:26:25.986Z,991.95
2023-01-21T05:27:25.979Z,991.89
2023-01-21T05:28:25.978Z,991.92
2023-01-21T05:29:25.955Z,991.92
2023-01-21T05:30:25.981Z,991.96
2023-01-21T05:31:26.021Z,991.98
2023-01-21T05:32:25.944Z,991.98
2023-01-21T05:33:25.949Z,991.98
2023-01-21T05:34:25.930Z,992.01
2023-01-21T05:35:25.874Z,991.99
2023-01-21T05:36:25.877Z,992.04
2023-01-21T05:37:25.895Z,992.05
2023-01-21T05:38:25.867Z,992.03
2023-01-21T05:39:25.846Z,992.07
2023-01-21T05:40:25.847Z,992.10
2023-01-21T05:41:25.843Z,992.09
2023-01-21T05:42:25.815Z,992.11
2023-01-21T05:43:25.786Z,992.14
2023-01-21T05:44:25.817Z,992.15
2023-01-21T05:45:25.765Z,992.13
2023-01-21T05:46:25.823Z,992.14
2023-01-21T05:47:25.794Z,992.22
2023-01-21T05:48:25.767Z,992.20
2023-01-21T05:49:25.733Z,992.21
2023-01-21T05:50:25.739Z,992.19
2023-01-21T05:51:25.829Z,992.24
2023-01-21T05:52:25.704Z,992.27
2023-01-21T05:53:25.681Z,992.26
2023-01-21T05:54:25.711Z,992.27
2023-01-21T05:55:25.665Z,992.31
2023-01-21T05:56:25.689Z,992.30
2023-01-21T05:57:25.644Z,992.32
2023-01-21T05:58:25.669Z,992.36
2023-01-21T05:59:25.633Z,992.33
2023-01-21T06:00:25.648Z,992.39
2023-01-21T06:01:25.591Z,992.37
2023-01-21T06:02:25.677Z,992.40
2023-01-21T06:03:25.604Z,992.45
2023-01-21T06:04:25.581Z,992.38
2023-01-21T06:05:25.557Z,992.44
2023-01-21T06:06:25.575Z,992.47
2023-01-21T06:07:25.589Z,992.44
2023-01-21T06:08:25.555Z,992.47
2023-01-21T06:09:25.517Z,992.46
2023-01-21T06:10:25.579Z,992.52
2023-01-21T06:11:26.400Z,992.53
2023-01-21T06:12:25.520Z,992.51
2023-01-21T06:13:25.473Z,992.55
2023-01-21T06:14:25.487Z,992.54
2023-01-21T06:15:25.486Z,992.52
2023-01-21T06:16:25.453Z,992.53
2023-01-21T06:17:25.430Z,992.56
2023-01-21T06:18:25.461Z,992.52
2023-01-21T06:19:25.408Z,992.51
2023-01-21T06:20:25.419Z,992.54
2023-01-21T06:21:25.427Z,992.56
2023-01-21T06:22:25.397Z,992.54
2023-01-21T06:23:25.348Z,992.52
2023-01-21T06:24:25.378Z,992.57
2023-01-21T06:25:25.349Z,992.57
2023-01-21T06:26:27.150Z,992.60
2023-01-21T06:27:25.341Z,992.60
2023-01-21T06:28:25.326Z,992.64
2023-01-21T06:29:25.309Z,992.59
2023-01-21T06:30:25.363Z,992.60
2023-01-21T06:31:25.328Z,992.63
2023-01-21T06:32:25.297Z,992.61
2023-01-21T06:33:25.269Z,992.64
2023-01-21T06:34:25.262Z,992.67
2023-01-21T06:35:25.227Z,992.64
2023-01-21T06:36:25.254Z,992.68
2023-01-21T06:37:25.217Z,992.72
2023-01-21T06:38:25.212Z,992.71
2023-01-21T06:39:25.197Z,992.73
2023-01-21T06:40:25.357Z,992.75
2023-01-21T06:41:25.156Z,992.76
2023-01-21T06:42:25.174Z,992.81
2023-01-21T06:43:25.164Z,992.89
2023-01-21T06:44:25.158Z,992.90
2023-01-21T06:45:25.125Z,992.83
2023-01-21T06:46:25.281Z,992.77
2023-01-21T06:47:25.116Z,992.85
2023-01-21T06:48:25.113Z,992.87
2023-01-21T06:49:25.102Z,992.90
2023-01-21T06:50:25.092Z,992.90
2023-01-21T06:51:25.070Z,992.89
2023-01-21T06:52:25.806Z,992.92
2023-01-21T06:53:25.381Z,992.90
2023-01-21T06:54:25.045Z,992.91
2023-01-21T06:55:25.036Z,992.92
2023-01-21T06:56:25.019Z,992.95
2023-01-21T06:57:24.992Z,992.92
2023-01-21T06:58:25.013Z,992.96
2023-01-21T06:59:25.000Z,992.95
2023-01-21T07:00:24.995Z,992.94
2023-01-21T07:01:24.956Z,992.95
2023-01-21T07:02:25.050Z,992.98
2023-01-21T07:03:24.923Z,992.94
2023-01-21T07:04:24.945Z,992.97
2023-01-21T07:05:24.912Z,992.97
2023-01-21T07:06:25.471Z,992.97
2023-01-21T07:07:24.893Z,992.99
2023-01-21T07:08:24.905Z,993.01
2023-01-21T07:09:24.882Z,993.08
2023-01-21T07:10:24.897Z,993.05
2023-01-21T07:11:24.839Z,993.03
2023-01-21T07:12:24.856Z,993.09
2023-01-21T07:13:25.589Z,993.12
2023-01-21T07:14:25.738Z,993.11
2023-01-21T07:15:24.793Z,993.12
2023-01-21T07:16:24.935Z,993.17
2023-01-21T07:17:24.796Z,993.15
2023-01-21T07:18:24.789Z,993.15
2023-01-21T07:19:24.807Z,993.22
2023-01-21T07:20:24.767Z,993.24
2023-01-21T07:21:24.741Z,993.27
2023-01-21T07:22:24.751Z,993.24
2023-01-21T07:23:24.708Z,993.27
2023-01-21T07:24:24.739Z,993.25
2023-01-21T07:25:24.689Z,993.30
2023-01-21T07:26:24.696Z,993.27
2023-01-21T07:27:24.693Z,993.31
2023-01-21T07:28:24.687Z,993.30
2023-01-21T07:29:24.665Z,993.33
2023-01-21T07:30:24.693Z,993.36
2023-01-21T07:31:24.801Z,993.38
2023-01-21T07:32:24.638Z,993.42
2023-01-21T07:33:25.454Z,993.42
2023-01-21T07:34:24.627Z,993.43
2023-01-21T07:35:24.585Z,993.43
2023-01-21T07:36:24.613Z,993.47
2023-01-21T07:37:24.574Z,993.48
2023-01-21T07:38:24.566Z,993.51
2023-01-21T07:39:24.653Z,993.52
2023-01-21T07:40:24.563Z,993.52
2023-01-21T07:41:24.523Z,993.56
2023-01-21T07:42:24.570Z,993.55
2023-01-21T07:43:24.496Z,993.53
2023-01-21T07:44:24.513Z,993.58
2023-01-21T07:45:24.474Z,993.58
2023-01-21T07:46:24.571Z,993.62
2023-01-21T07:47:24.476Z,993.64
2023-01-21T07:48:24.487Z,993.62
2023-01-21T07:49:24.462Z,993.64
2023-01-21T07:50:24.453Z,993.69
2023-01-21T07:51:24.522Z,993.61
2023-01-21T07:52:24.430Z,993.63
2023-01-21T07:53:24.420Z,993.64
2023-01-21T07:54:24.436Z,993.64
2023-01-21T07:55:24.411Z,993.67
2023-01-21T07:56:24.424Z,993.64
2023-01-21T07:57:24.373Z,993.65
2023-01-21T07:58:24.390Z,993.66
2023-01-21T07:59:24.356Z,993.69
2023-01-21T08:00:24.374Z,993.73
2023-01-21T08:01:25.473Z,993.77
2023-01-21T08:02:24.415Z,993.74
2023-01-21T08:03:24.354Z,993.71
2023-01-21T08:04:24.314Z,993.74
2023-01-21T08:05:24.263Z,993.74
2023-01-21T08:06:24.272Z,993.76
2023-01-21T08:07:24.250Z,993.74
2023-01-21T08:08:24.250Z,993.73
2023-01-21T08:09:24.228Z,993.73
2023-01-21T08:10:24.343Z,993.76
2023-01-21T08:11:24.211Z,993.75
2023-01-21T08:12:27.023Z,993.81
2023-01-21T08:13:24.189Z,993.76
2023-01-21T08:14:25.087Z,993.81
2023-01-21T08:15:24.247Z,993.78
2023-01-21T08:16:24.233Z,993.79
2023-01-21T08:17:24.196Z,993.79
2023-01-21T08:18:24.145Z,993.80
2023-01-21T08:19:24.130Z,993.74
2023-01-21T08:20:24.186Z,993.75
2023-01-21T08:21:24.090Z,993.77
2023-01-21T08:22:24.104Z,993.79
2023-01-21T08:23:24.064Z,993.80
2023-01-21T08:24:24.700Z,993.86
2023-01-21T08:25:24.046Z,993.85
2023-01-21T08:26:25.674Z,993.89
2023-01-21T08:27:24.025Z,993.90
2023-01-21T08:28:24.044Z,993.91
2023-01-21T08:29:24.018Z,993.93
2023-01-21T08:30:24.018Z,993.90
2023-01-21T08:31:24.000Z,993.86
2023-01-21T08:32:23.986Z,993.82
2023-01-21T08:33:23.951Z,993.86
2023-01-21T08:34:24.061Z,993.79
2023-01-21T08:35:23.942Z,993.84
2023-01-21T08:36:23.944Z,993.84
2023-01-21T08:37:23.980Z,993.85
2023-01-21T08:38:23.927Z,993.86
2023-01-21T08:39:24.049Z,993.89
2023-01-21T08:40:23.939Z,993.93
2023-01-21T08:41:23.885Z,993.83
2023-01-21T08:42:23.882Z,993.83
2023-01-21T08:43:23.861Z,993.87
2023-01-21T08:44:23.853Z,993.80
2023-01-21T08:45:23.860Z,993.85
2023-01-21T08:46:23.855Z,993.86
2023-01-21T08:47:23.835Z,993.85
2023-01-21T08:48:23.799Z,993.79
2023-01-21T08:49:23.820Z,993.83
2023-01-21T08:50:23.768Z,993.84
2023-01-21T08:51:23.837Z,993.85
2023-01-21T08:52:23.743Z,993.87
2023-01-21T08:53:23.774Z,993.82
2023-01-21T08:54:23.719Z,993.85
2023-01-21T08:55:23.861Z,993.82
2023-01-21T08:56:23.711Z,993.79
2023-01-21T08:57:23.709Z,993.88
2023-01-21T08:58:23.689Z,993.79
2023-01-21T08:59:23.781Z,993.80
2023-01-21T09:00:23.663Z,993.76
2023-01-21T09:01:23.733Z,993.79
2023-01-21T09:02:23.713Z,993.82
2023-01-21T09:03:23.669Z,993.86
2023-01-21T09:04:23.707Z,993.86
2023-01-21T09:05:23.663Z,993.82
2023-01-21T09:06:23.600Z,993.82
2023-01-21T09:07:23.618Z,993.87
2023-01-21T09:08:23.604Z,993.82
2023-01-21T09:09:23.599Z,993.87
2023-01-21T09:10:23.561Z,993.88
2023-01-21T09:11:23.617Z,993.88
2023-01-21T09:12:23.542Z,993.83
2023-01-21T09:13:23.540Z,993.93
2023-01-21T09:14:23.507Z,993.90
2023-01-21T09:15:23.576Z,993.86
2023-01-21T09:16:23.502Z,993.83
2023-01-21T09:17:23.509Z,993.86
2023-01-21T09:18:23.484Z,993.88
2023-01-21T09:19:23.484Z,993.85
2023-01-21T09:20:23.445Z,993.83
2023-01-21T09:21:23.450Z,993.87
2023-01-21T09:22:23.482Z,993.84
2023-01-21T09:23:23.444Z,993.82
2023-01-21T09:24:23.383Z,993.88
2023-01-21T09:25:23.498Z,993.86
2023-01-21T09:26:23.362Z,993.89
2023-01-21T09:27:23.375Z,993.88
2023-01-21T09:28:23.383Z,993.85
2023-01-21T09:29:23.370Z,993.91
2023-01-21T09:30:23.324Z,993.91
2023-01-21T09:31:23.408Z,993.91
2023-01-21T09:32:23.304Z,993.89
2023-01-21T09:33:23.313Z,993.94
2023-01-21T09:34:23.274Z,994.00
2023-01-21T09:35:23.353Z,994.05
2023-01-21T09:36:23.274Z,994.02
2023-01-21T09:37:23.278Z,994.02
2023-01-21T09:38:23.502Z,993.99
2023-01-21T09:39:23.242Z,994.02
2023-01-21T09:40:23.219Z,994.02
2023-01-21T09:41:23.232Z,994.00
2023-01-21T09:42:23.201Z,994.05
2023-01-21T09:43:23.201Z,994.04
2023-01-21T09:44:23.220Z,994.10
2023-01-21T09:45:23.360Z,994.06
2023-01-21T09:46:23.186Z,994.06
2023-01-21T09:47:23.241Z,994.05
2023-01-21T09:48:23.148Z,994.06
2023-01-21T09:49:23.131Z,994.10
2023-01-21T09:50:23.111Z,994.13
2023-01-21T09:51:23.192Z,994.14
2023-01-21T09:52:23.115Z,994.07
2023-01-21T09:53:23.122Z,994.08
2023-01-21T09:54:23.964Z,994.07
2023-01-21T09:55:23.168Z,994.11
2023-01-21T09:56:23.082Z,994.12
2023-01-21T09:57:23.163Z,994.09
2023-01-21T09:58:23.022Z,994.10
2023-01-21T09:59:23.040Z,994.15
2023-01-21T10:00:22.989Z,994.15
2023-01-21T10:01:23.061Z,994.19
2023-01-21T10:02:22.981Z,994.21
2023-01-21T10:03:22.982Z,994.22
2023-01-21T10:04:23.025Z,994.13
2023-01-21T10:05:22.972Z,994.16
2023-01-21T10:06:22.921Z,994.19
2023-01-21T10:07:23.546Z,994.17
2023-01-21T10:08:22.909Z,994.21
2023-01-21T10:09:22.909Z,994.16
2023-01-21T10:10:22.906Z,994.19
2023-01-21T10:11:23.029Z,994.23
2023-01-21T10:12:22.927Z,994.27
2023-01-21T10:13:22.893Z,994.30
2023-01-21T10:14:22.827Z,994.33
2023-01-21T10:15:22.847Z,994.36
2023-01-21T10:16:22.856Z,994.38
2023-01-21T10:17:22.987Z,994.39
2023-01-21T10:18:22.809Z,994.39
2023-01-21T10:19:22.828Z,994.40
2023-01-21T10:20:22.789Z,994.39
2023-01-21T10:21:22.785Z,994.42
2023-01-21T10:22:22.776Z,994.41
2023-01-21T10:23:22.778Z,994.41
2023-01-21T10:24:22.740Z,994.44
2023-01-21T10:25:22.739Z,994.45
2023-01-21T10:26:22.703Z,994.45
2023-01-21T10:27:22.718Z,994.45
2023-01-21T10:28:22.778Z,994.47
2023-01-21T10:29:22.749Z,994.48
2023-01-21T10:30:22.694Z,994.49
2023-01-21T10:31:22.773Z,994.49
2023-01-21T10:32:22.632Z,994.43
2023-01-21T10:33:22.670Z,994.45
2023-01-21T10:34:22.631Z,994.45
2023-01-21T10:35:22.638Z,994.44
2023-01-21T10:36:22.600Z,994.44
2023-01-21T10:37:23.401Z,994.50
2023-01-21T10:38:22.611Z,994.49
2023-01-21T10:39:22.591Z,994.45
2023-01-21T10:40:22.547Z,994.45
2023-01-21T10:41:22.567Z,994.52
2023-01-21T10:42:22.522Z,994.47
2023-01-21T10:43:22.545Z,994.49
2023-01-21T10:44:22.494Z,994.48
2023-01-21T10:45:22.550Z,994.49
2023-01-21T10:46:22.536Z,994.57
2023-01-21T10:47:22.495Z,994.46
2023-01-21T10:48:22.454Z,994.51
2023-01-21T10:49:22.462Z,994.54
2023-01-21T10:50:22.438Z,994.53
2023-01-21T10:51:22.488Z,994.52
2023-01-21T10:52:22.422Z,994.56
2023-01-21T10:53:22.455Z,994.54
2023-01-21T10:54:22.802Z,994.37
2023-01-21T10:55:22.416Z,994.50
2023-01-21T10:56:22.361Z,994.59
2023-01-21T10:57:22.453Z,994.54
2023-01-21T10:58:22.422Z,994.53
2023-01-21T10:59:22.378Z,994.44
2023-01-21T11:00:22.312Z,994.45
2023-01-21T11:01:22.337Z,994.42
2023-01-21T11:02:22.352Z,994.46
2023-01-21T11:03:22.303Z,994.40
2023-01-21T11:04:22.285Z,994.43
2023-01-21T11:05:22.306Z,994.43
2023-01-21T11:06:23.437Z,994.44
2023-01-21T11:07:22.278Z,994.43
2023-01-21T11:08:22.239Z,994.41
2023-01-21T11:09:23.134Z,994.38
2023-01-21T11:10:22.245Z,994.42
2023-01-21T11:11:22.210Z,994.41
2023-01-21T11:12:23.101Z,994.41
2023-01-21T11:13:26.067Z,994.38
2023-01-21T11:14:22.174Z,994.42
2023-01-21T11:15:22.178Z,994.42
2023-01-21T11:16:22.648Z,994.33
2023-01-21T11:17:23.963Z,994.33
2023-01-21T11:18:22.148Z,994.30
2023-01-21T11:19:22.160Z,994.31
2023-01-21T11:20:22.118Z,994.35
2023-01-21T11:21:22.152Z,994.31
2023-01-21T11:22:22.087Z,994.29
2023-01-21T11:23:22.096Z,994.27
2023-01-21T11:24:22.064Z,994.27
2023-01-21T11:25:22.079Z,994.24
2023-01-21T11:26:22.017Z,994.24
2023-01-21T11:27:22.062Z,994.29
2023-01-21T11:28:22.046Z,994.26
2023-01-21T11:29:22.018Z,994.24
2023-01-21T11:30:44.126Z,994.27
2023-01-21T11:31:23.142Z,994.24
2023-01-21T11:32:22.209Z,994.25
2023-01-21T11:33:21.964Z,994.25
2023-01-21T11:34:21.949Z,994.25
2023-01-21T11:35:21.962Z,994.20
2023-01-21T11:36:21.909Z,994.24
2023-01-21T11:37:21.919Z,994.29
2023-01-21T11:38:21.943Z,994.22
2023-01-21T11:39:21.912Z,994.24
2023-01-21T11:40:22.360Z,994.24
2023-01-21T11:41:22.106Z,994.26
2023-01-21T11:42:21.839Z,994.26
2023-01-21T11:43:21.868Z,994.28
2023-01-21T11:44:21.823Z,994.25
2023-01-21T11:45:21.835Z,994.29
2023-01-21T11:46:21.856Z,994.23
2023-01-21T11:47:21.821Z,994.22
2023-01-21T11:48:21.769Z,994.14
2023-01-21T11:49:21.788Z,994.25
2023-01-21T11:50:23.287Z,994.24
2023-01-21T11:51:24.978Z,994.24
2023-01-21T11:52:28.207Z,994.27
2023-01-21T11:53:26.736Z,994.24
2023-01-21T11:54:27.499Z,994.27
2023-01-21T11:55:21.806Z,994.26
2023-01-21T11:56:21.713Z,994.25
2023-01-21T11:57:21.704Z,994.23
2023-01-21T11:58:21.662Z,994.27
2023-01-21T11:59:21.822Z,994.28
2023-01-21T12:00:21.659Z,994.28
2023-01-21T12:01:21.685Z,994.23
2023-01-21T12:02:21.710Z,994.22
2023-01-21T12:03:21.636Z,994.20
2023-01-21T12:04:21.607Z,994.21
2023-01-21T12:05:21.625Z,994.22
2023-01-21T12:06:21.585Z,994.18
2023-01-21T12:07:21.586Z,994.17
2023-01-21T12:08:21.555Z,994.13
2023-01-21T12:09:21.564Z,994.08
2023-01-21T12:10:21.525Z,994.11
2023-01-21T12:11:21.546Z,994.09
2023-01-21T12:12:21.515Z,994.06
2023-01-21T12:13:21.535Z,994.08
2023-01-21T12:14:21.517Z,994.09
2023-01-21T12:15:21.495Z,994.11
2023-01-21T12:16:21.469Z,994.15
2023-01-21T12:17:21.472Z,994.18
2023-01-21T12:18:21.442Z,994.15
2023-01-21T12:19:22.306Z,994.15
2023-01-21T12:20:21.545Z,994.16
2023-01-21T12:21:21.427Z,994.19
2023-01-21T12:22:21.400Z,994.15
2023-01-21T12:23:21.402Z,994.19
2023-01-21T12:24:21.372Z,994.15
2023-01-21T12:25:21.404Z,994.13
2023-01-21T12:26:21.351Z,994.15
2023-01-21T12:27:21.363Z,994.22
2023-01-21T12:28:21.337Z,994.20